Spring River (Missouri), Waco (07186000)

StateMissouriLatestLow (275 cfs)
RiverSpring RiverRatingObservedEstimated
Updated2020-08-06 9:30 (57 minutes ago)Flood - The river is flooding. Obstacles can be treacherous or deadly. The river should be avoided at this stage for casual trips and definitely for the inexperienced. Trips should be attempted only with protective gear and equipment.Flood(none)4293
Discharge275 cfs (median: 151 cfs)High - The river is high and potentially dangerous, especially for the young and / or inexperienced. Normal stream obstacles are sometimes difficult to navigate. Extended distances can be attempted, but canoe travel may not be advisable.High(none)573
Height2.1 feetGood - Conditions are ideal for a canoe or kayak. Boats typically will drag on fewer than one-quarter of riffles, if at all, and portages are unnecessary or rare. Normal float lengths can be attempted without a problem.Good(none)523
TrendFalling (falling over 24 hours)Low - River is low but can still be floated. Some riffles are okay but most come with significant dragging and might need a portage. Float lengths should be reduced to accommodate low flow, dragging, and portages.Low(none)263
USGSExternal icon USGS Site (External icon Google Maps)Poor - River is too low to float comfortably. Most or all riffles will drag or must be portaged and some obstacles (such as slick shelf rock) cause undue problems. Avoid the river at this stage for casual paddling trips.Poor(none)49

Trending Data

Plot Image

Trips for Spring River (Missouri), Waco (07186000)

DateStartEndDistanceConditionDischargeHeightFishingDetails

A total of 0 rows are displayed.

Condition Descriptions

Fishing Conditions

Fish Species

Notes

Classic Trip List

The classic River Trips application is still available for use. It is updated with the new system using a data retrofit. It is no longer maintained. The original River Trips application is no longer updated (as of 1 Dec 2016) but can be checked for errors or for the condition of the data before it was converted to the new system.

Gauge Data Table

ObservationHeightDischargeMaximum
Discharge
Minimum
Discharge
Mean
Discharge
P05P10P20P25P50
(Median)
P75P80P90P95
2020-08-06 09:30 2.10 275 6920 (2013) 13 (1954) 465 37 55 75 86 151 344 409 1110 1620
2020-08-06 08:30 2.11 278 6920 (2013) 13 (1954) 465 37 55 75 86 151 344 409 1110 1620
2020-08-06 07:30 2.10 275 6920 (2013) 13 (1954) 465 37 55 75 86 151 344 409 1110 1620
2020-08-06 06:30 2.11 278 6920 (2013) 13 (1954) 465 37 55 75 86 151 344 409 1110 1620
2020-08-06 05:30 2.11 278 6920 (2013) 13 (1954) 465 37 55 75 86 151 344 409 1110 1620
2020-08-06 04:30 2.12 282 6920 (2013) 13 (1954) 465 37 55 75 86 151 344 409 1110 1620
2020-08-06 03:30 2.12 282 6920 (2013) 13 (1954) 465 37 55 75 86 151 344 409 1110 1620
2020-08-06 02:30 2.13 286 6920 (2013) 13 (1954) 465 37 55 75 86 151 344 409 1110 1620
2020-08-06 01:30 2.13 286 6920 (2013) 13 (1954) 465 37 55 75 86 151 344 409 1110 1620
2020-08-06 00:30 2.13 286 6920 (2013) 13 (1954) 465 37 55 75 86 151 344 409 1110 1620
2020-08-05 23:30 2.13 286 9290 (2013) 11 (1954) 476 41 50 83 94 155 354 486 816 1920
2020-08-05 22:30 2.13 286 9290 (2013) 11 (1954) 476 41 50 83 94 155 354 486 816 1920
2020-08-05 21:30 2.14 290 9290 (2013) 11 (1954) 476 41 50 83 94 155 354 486 816 1920
2020-08-05 20:30 2.15 294 9290 (2013) 11 (1954) 476 41 50 83 94 155 354 486 816 1920
2020-08-05 19:30 2.15 294 9290 (2013) 11 (1954) 476 41 50 83 94 155 354 486 816 1920
2020-08-05 18:30 2.16 299 9290 (2013) 11 (1954) 476 41 50 83 94 155 354 486 816 1920
2020-08-05 17:30 2.15 294 9290 (2013) 11 (1954) 476 41 50 83 94 155 354 486 816 1920
2020-08-05 16:30 2.17 303 9290 (2013) 11 (1954) 476 41 50 83 94 155 354 486 816 1920
2020-08-05 15:30 2.17 303 9290 (2013) 11 (1954) 476 41 50 83 94 155 354 486 816 1920
2020-08-05 14:30 2.17 303 9290 (2013) 11 (1954) 476 41 50 83 94 155 354 486 816 1920
2020-08-05 13:30 2.17 303 9290 (2013) 11 (1954) 476 41 50 83 94 155 354 486 816 1920
2020-08-05 12:30 2.18 307 9290 (2013) 11 (1954) 476 41 50 83 94 155 354 486 816 1920
2020-08-05 11:30 2.19 311 9290 (2013) 11 (1954) 476 41 50 83 94 155 354 486 816 1920
2020-08-05 10:30 2.19 311 9290 (2013) 11 (1954) 476 41 50 83 94 155 354 486 816 1920
2020-08-05 09:30 2.19 311 9290 (2013) 11 (1954) 476 41 50 83 94 155 354 486 816 1920
2020-08-05 08:30 2.20 315 9290 (2013) 11 (1954) 476 41 50 83 94 155 354 486 816 1920
2020-08-05 07:30 2.21 319 9290 (2013) 11 (1954) 476 41 50 83 94 155 354 486 816 1920
2020-08-05 06:30 2.22 324 9290 (2013) 11 (1954) 476 41 50 83 94 155 354 486 816 1920
2020-08-05 05:30 2.21 319 9290 (2013) 11 (1954) 476 41 50 83 94 155 354 486 816 1920
2020-08-05 04:30 2.23 328 9290 (2013) 11 (1954) 476 41 50 83 94 155 354 486 816 1920
2020-08-05 03:30 2.23 328 9290 (2013) 11 (1954) 476 41 50 83 94 155 354 486 816 1920
2020-08-05 02:30 2.23 328 9290 (2013) 11 (1954) 476 41 50 83 94 155 354 486 816 1920
2020-08-05 01:30 2.25 336 9290 (2013) 11 (1954) 476 41 50 83 94 155 354 486 816 1920
2020-08-05 00:30 2.25 336 9290 (2013) 11 (1954) 476 41 50 83 94 155 354 486 816 1920
2020-08-04 23:30 2.24 332 6800 (2013) 10 (1954) 414 30 48 84 89 146 366 471 838 1560
2020-08-04 22:30 2.25 336 6800 (2013) 10 (1954) 414 30 48 84 89 146 366 471 838 1560
2020-08-04 21:30 2.26 341 6800 (2013) 10 (1954) 414 30 48 84 89 146 366 471 838 1560
2020-08-04 20:30 2.26 341 6800 (2013) 10 (1954) 414 30 48 84 89 146 366 471 838 1560
2020-08-04 19:30 2.27 345 6800 (2013) 10 (1954) 414 30 48 84 89 146 366 471 838 1560
2020-08-04 18:30 2.28 350 6800 (2013) 10 (1954) 414 30 48 84 89 146 366 471 838 1560
2020-08-04 17:30 2.30 358 6800 (2013) 10 (1954) 414 30 48 84 89 146 366 471 838 1560
2020-08-04 16:30 2.30 358 6800 (2013) 10 (1954) 414 30 48 84 89 146 366 471 838 1560
2020-08-04 15:30 2.31 363 6800 (2013) 10 (1954) 414 30 48 84 89 146 366 471 838 1560
2020-08-04 14:30 2.32 367 6800 (2013) 10 (1954) 414 30 48 84 89 146 366 471 838 1560
2020-08-04 13:30 2.32 367 6800 (2013) 10 (1954) 414 30 48 84 89 146 366 471 838 1560
2020-08-04 12:30 2.34 376 6800 (2013) 10 (1954) 414 30 48 84 89 146 366 471 838 1560
2020-08-04 11:30 2.34 376 6800 (2013) 10 (1954) 414 30 48 84 89 146 366 471 838 1560
2020-08-04 10:30 2.36 386 6800 (2013) 10 (1954) 414 30 48 84 89 146 366 471 838 1560
2020-08-04 09:30 2.37 390 6800 (2013) 10 (1954) 414 30 48 84 89 146 366 471 838 1560
2020-08-04 08:30 2.38 395 6800 (2013) 10 (1954) 414 30 48 84 89 146 366 471 838 1560
2020-08-04 07:30 2.39 400 6800 (2013) 10 (1954) 414 30 48 84 89 146 366 471 838 1560
2020-08-04 06:30 2.39 400 6800 (2013) 10 (1954) 414 30 48 84 89 146 366 471 838 1560
2020-08-04 05:30 2.41 409 6800 (2013) 10 (1954) 414 30 48 84 89 146 366 471 838 1560
2020-08-04 04:30 2.43 419 6800 (2013) 10 (1954) 414 30 48 84 89 146 366 471 838 1560
2020-08-04 03:30 2.43 419 6800 (2013) 10 (1954) 414 30 48 84 89 146 366 471 838 1560
2020-08-04 02:30 2.45 428 6800 (2013) 10 (1954) 414 30 48 84 89 146 366 471 838 1560
2020-08-04 01:30 2.45 428 6800 (2013) 10 (1954) 414 30 48 84 89 146 366 471 838 1560
2020-08-04 00:30 2.47 438 6800 (2013) 10 (1954) 414 30 48 84 89 146 366 471 838 1560
2020-08-03 23:30 2.47 438 3770 (1933) 12 (1954) 305 31 51 83 99 160 332 377 668 1140
2020-08-03 22:30 2.48 442 3770 (1933) 12 (1954) 305 31 51 83 99 160 332 377 668 1140
2020-08-03 21:30 2.50 452 3770 (1933) 12 (1954) 305 31 51 83 99 160 332 377 668 1140
2020-08-03 20:30 2.52 461 3770 (1933) 12 (1954) 305 31 51 83 99 160 332 377 668 1140
2020-08-03 19:30 2.53 466 3770 (1933) 12 (1954) 305 31 51 83 99 160 332 377 668 1140
2020-08-03 18:30 2.54 471 3770 (1933) 12 (1954) 305 31 51 83 99 160 332 377 668 1140
2020-08-03 17:30 2.57 485 3770 (1933) 12 (1954) 305 31 51 83 99 160 332 377 668 1140
2020-08-03 16:30 2.58 490 3770 (1933) 12 (1954) 305 31 51 83 99 160 332 377 668 1140
2020-08-03 15:30 2.60 500 3770 (1933) 12 (1954) 305 31 51 83 99 160 332 377 668 1140
2020-08-03 14:30 2.61 504 3770 (1933) 12 (1954) 305 31 51 83 99 160 332 377 668 1140
2020-08-03 13:30 2.62 509 3770 (1933) 12 (1954) 305 31 51 83 99 160 332 377 668 1140
2020-08-03 12:30 2.65 524 3770 (1933) 12 (1954) 305 31 51 83 99 160 332 377 668 1140
2020-08-03 11:30 2.67 534 3770 (1933) 12 (1954) 305 31 51 83 99 160 332 377 668 1140
2020-08-03 10:30 2.69 545 3770 (1933) 12 (1954) 305 31 51 83 99 160 332 377 668 1140
2020-08-03 09:30 2.72 560 3770 (1933) 12 (1954) 305 31 51 83 99 160 332 377 668 1140
2020-08-03 08:30 2.74 570 3770 (1933) 12 (1954) 305 31 51 83 99 160 332 377 668 1140
2020-08-03 07:30 2.75 575 3770 (1933) 12 (1954) 305 31 51 83 99 160 332 377 668 1140
2020-08-03 06:30 2.79 596 3770 (1933) 12 (1954) 305 31 51 83 99 160 332 377 668 1140
2020-08-03 05:30 2.81 607 3770 (1933) 12 (1954) 305 31 51 83 99 160 332 377 668 1140
2020-08-03 04:30 2.84 623 3770 (1933) 12 (1954) 305 31 51 83 99 160 332 377 668 1140
2020-08-03 03:30 2.86 634 3770 (1933) 12 (1954) 305 31 51 83 99 160 332 377 668 1140
2020-08-03 02:30 2.90 656 3770 (1933) 12 (1954) 305 31 51 83 99 160 332 377 668 1140
2020-08-03 01:30 2.94 678 3770 (1933) 12 (1954) 305 31 51 83 99 160 332 377 668 1140
2020-08-03 00:30 2.97 695 3770 (1933) 12 (1954) 305 31 51 83 99 160 332 377 668 1140

A total of 82 rows are displayed for years 1924 through 2019.